LGKO

Details ICAO LGKO (KGS)
Name KOS
Region Greece
Timezone Europe/Athens (UTC+3.0)
Plans Departing 203
Arriving 347
Stats Elevation 412 ft / 126 m (AMSL)
Location 36.794403° 27.090764°
Runways 1
Magnetic Variation 4.765° E
Sunrise 2018-05-25 02:58:53 UTC / 2018-05-25 05:58:53 Local
Sunset 2018-05-25 17:21:07 UTC / 2018-05-25 20:21:07 Local
Advertisement - Login to hide

Runways

ID Width Length Bearing (true) Bearing (mag) Surface Threshold Offset Overrun Length
14 148 ft / 45 m 7,923 ft / 2,415 m 148.29° 143.52° Asphalt 0 ft / 0 m 240 ft / 73 m
32 148 ft / 45 m 7,923 ft / 2,415 m 328.30° 323.53° Asphalt 0 ft / 0 m 205 ft / 62 m

Map

Weather


0- 5 10 15 20 25 30 35+ Temperature / ° C

Clouds and Precipitation
Forecast for 2018-05-25 00:00 UTC. Updated 4 hours ago

Ground ~20,000 ft ~40,000 ft Winds

METAR

LGKO 250320Z 30004KT 9999 FEW015 19/18 Q1006

TAF

TAF LGKO 242300Z 2500/2524 31010KT 9000 SCT012 PROB30 2500/2505 4000 BR SCT008

Frequencies

Recorded 126.95 MHz ATIS
Tower 122.10 MHz IPPOKRATIS TWR
Approach 122.10 MHz APP
Tower 121.05 MHz IPPOKRATIS TWR
Approach 119.95 MHz APP
Warning: Do not use this data for real-world aviation or navigation. No guarantee of current accuracy is given.